createdAt,value
2022-10-06T00:01:22.274Z,14.87
2022-10-06T00:06:22.595Z,14.90
2022-10-06T00:11:21.506Z,14.86
2022-10-06T00:16:23.640Z,14.79
2022-10-06T00:21:24.780Z,14.68
2022-10-06T00:26:24.349Z,14.65
2022-10-06T00:31:24.129Z,14.63
2022-10-06T00:36:24.504Z,14.62
2022-10-06T00:41:23.367Z,14.61
2022-10-06T00:46:33.872Z,14.60
2022-10-06T00:51:35.280Z,14.59
2022-10-06T00:56:34.258Z,14.58
2022-10-06T01:01:34.077Z,14.55
2022-10-06T01:06:45.360Z,14.49
2022-10-06T01:11:45.189Z,14.46
2022-10-06T01:16:47.913Z,14.40
2022-10-06T01:21:50.846Z,14.29
2022-10-06T01:26:51.936Z,14.23
2022-10-06T01:31:50.790Z,14.22
2022-10-06T01:36:49.954Z,14.21
2022-10-06T01:41:50.293Z,14.19
2022-10-06T01:46:50.049Z,14.16
2022-10-06T01:51:49.075Z,14.09
2022-10-06T01:56:47.990Z,14.02
2022-10-06T02:01:48.156Z,13.98
2022-10-06T02:06:50.714Z,13.92
2022-10-06T02:11:49.933Z,13.91
2022-10-06T02:17:00.472Z,13.88
2022-10-06T02:21:59.525Z,13.85
2022-10-06T02:26:58.442Z,13.86
2022-10-06T02:31:57.442Z,13.79
2022-10-06T02:36:58.298Z,13.80
2022-10-06T02:41:57.325Z,13.76
2022-10-06T02:46:56.526Z,13.79
2022-10-06T02:51:55.428Z,13.77
2022-10-06T02:56:55.726Z,13.75
2022-10-06T03:01:54.979Z,13.69
2022-10-06T03:06:54.216Z,13.64
2022-10-06T03:12:00.634Z,13.58
2022-10-06T03:17:06.476Z,13.53
2022-10-06T03:22:06.084Z,13.43
2022-10-06T03:27:13.604Z,13.33
2022-10-06T03:32:12.411Z,13.29
2022-10-06T03:37:11.306Z,13.23
2022-10-06T03:42:10.875Z,13.19
2022-10-06T03:47:16.098Z,13.14
2022-10-06T03:52:16.216Z,13.13
2022-10-06T03:57:15.173Z,13.08
2022-10-06T04:02:15.532Z,13.05
2022-10-06T04:07:15.338Z,12.97
2022-10-06T04:12:14.863Z,12.94
2022-10-06T04:17:16.774Z,12.93
2022-10-06T04:22:15.771Z,12.94
2022-10-06T04:27:30.080Z,12.88
2022-10-06T04:32:35.573Z,12.84
2022-10-06T04:37:35.094Z,12.80
2022-10-06T04:42:35.565Z,12.80
2022-10-06T04:47:39.231Z,12.79
2022-10-06T04:52:38.143Z,12.80
2022-10-06T04:57:36.987Z,12.97
2022-10-06T05:02:36.392Z,12.95
2022-10-06T05:07:36.719Z,12.96
2022-10-06T05:12:37.556Z,13.01
2022-10-06T05:17:36.438Z,13.06
2022-10-06T05:22:36.716Z,13.08
2022-10-06T05:27:35.586Z,13.15
2022-10-06T05:32:36.266Z,13.16
2022-10-06T05:37:37.662Z,13.16
2022-10-06T05:42:36.567Z,13.17
2022-10-06T05:47:35.376Z,13.29
2022-10-06T05:52:34.772Z,13.39
2022-10-06T05:57:35.077Z,13.47
2022-10-06T06:02:34.079Z,13.37
2022-10-06T06:07:32.922Z,13.31
2022-10-06T06:12:31.871Z,13.41
2022-10-06T06:18:01.722Z,13.52
2022-10-06T06:23:00.689Z,13.68
2022-10-06T06:28:00.768Z,13.62
2022-10-06T06:33:01.088Z,13.87
2022-10-06T06:38:00.599Z,13.99
2022-10-06T06:43:03.070Z,14.15
2022-10-06T06:48:22.050Z,14.17
2022-10-06T06:53:20.879Z,14.30
2022-10-06T06:58:21.864Z,14.35
2022-10-06T07:03:52.174Z,14.51
2022-10-06T07:08:44.029Z,14.52
2022-10-06T07:13:44.165Z,14.58
2022-10-06T07:19:01.702Z,14.78
2022-10-06T07:24:18.354Z,14.97
2022-10-06T07:29:17.391Z,15.22
2022-10-06T07:34:17.649Z,15.27
2022-10-06T07:39:16.930Z,15.44
2022-10-06T07:44:17.018Z,15.69
2022-10-06T07:49:19.438Z,15.80
2022-10-06T07:54:24.022Z,16.03
2022-10-06T08:00:02.812Z,16.22
2022-10-06T08:05:11.881Z,16.28
2022-10-06T08:10:10.885Z,16.31
2022-10-06T08:15:13.079Z,16.55
2022-10-06T08:20:14.279Z,16.80
2022-10-06T08:25:13.190Z,17.00
2022-10-06T08:30:13.501Z,17.09
2022-10-06T08:35:14.361Z,17.21
2022-10-06T08:40:16.036Z,17.66
2022-10-06T08:45:19.292Z,17.88
2022-10-06T08:50:21.430Z,18.54
2022-10-06T08:55:38.912Z,19.79
2022-10-06T09:00:39.037Z,20.60
2022-10-06T09:05:41.006Z,21.12
2022-10-06T09:10:45.654Z,22.27
2022-10-06T09:15:51.054Z,22.75
2022-10-06T09:20:57.188Z,23.53
2022-10-06T09:25:58.366Z,23.70
2022-10-06T09:30:57.740Z,23.97
2022-10-06T09:36:12.614Z,25.09
2022-10-06T09:41:13.584Z,25.74
2022-10-06T09:46:28.006Z,26.31
2022-10-06T09:51:29.190Z,26.82
2022-10-06T09:56:27.946Z,27.04
2022-10-06T10:01:29.334Z,27.26
2022-10-06T10:06:31.771Z,27.94
2022-10-06T10:11:47.971Z,27.55
2022-10-06T10:16:53.233Z,27.94
2022-10-06T10:21:56.770Z,27.83
2022-10-06T10:27:01.467Z,28.12
2022-10-06T10:32:12.301Z,28.22
2022-10-06T10:37:15.468Z,29.02
2022-10-06T10:42:22.072Z,29.67
2022-10-06T10:47:27.904Z,29.80
2022-10-06T10:52:33.569Z,29.53
2022-10-06T10:57:38.048Z,30.14
2022-10-06T11:02:38.440Z,30.88
2022-10-06T11:07:45.676Z,31.17
2022-10-06T11:13:11.891Z,31.06
2022-10-06T11:18:25.875Z,30.88
2022-10-06T11:23:45.528Z,31.00
2022-10-06T11:28:47.855Z,30.48
2022-10-06T11:33:50.845Z,30.75
2022-10-06T11:38:57.705Z,30.89
2022-10-06T11:44:03.640Z,31.37
2022-10-06T11:49:48.542Z,31.67
2022-10-06T11:54:51.264Z,31.99
2022-10-06T11:59:50.739Z,32.55
2022-10-06T12:05:54.928Z,32.82
2022-10-06T12:10:50.030Z,32.39
2022-10-06T12:21:43.246Z,33.46
2022-10-06T12:26:56.118Z,34.09
2022-10-06T12:32:02.735Z,33.92
2022-10-06T12:37:32.332Z,34.32
2022-10-06T12:42:32.677Z,33.86
2022-10-06T12:47:38.324Z,34.03
2022-10-06T12:52:48.115Z,33.92
2022-10-06T12:57:50.794Z,34.22
2022-10-06T13:02:49.799Z,34.07
2022-10-06T13:08:07.218Z,33.83
2022-10-06T13:13:23.262Z,33.85
2022-10-06T13:18:24.419Z,34.09
2022-10-06T13:23:26.766Z,34.40
2022-10-06T13:28:45.610Z,34.49
2022-10-06T13:33:46.762Z,35.01
2022-10-06T13:38:46.735Z,34.55
2022-10-06T13:44:04.956Z,35.24
2022-10-06T13:49:12.649Z,34.95
2022-10-06T13:54:25.349Z,34.08
2022-10-06T13:59:32.500Z,33.83
2022-10-06T14:04:34.646Z,33.53
2022-10-06T14:09:36.175Z,33.89
2022-10-06T14:14:36.400Z,33.74
2022-10-06T14:19:36.515Z,34.22
2022-10-06T14:24:37.405Z,33.43
2022-10-06T14:29:38.109Z,32.74
2022-10-06T14:34:37.271Z,32.35
2022-10-06T14:39:35.936Z,32.03
2022-10-06T14:44:34.547Z,31.88
2022-10-06T14:49:34.631Z,31.84
2022-10-06T14:54:34.297Z,32.00
2022-10-06T14:59:33.116Z,32.12
2022-10-06T15:04:31.825Z,32.08
2022-10-06T15:09:33.237Z,32.02
2022-10-06T15:14:32.306Z,31.79
2022-10-06T15:19:31.467Z,31.50
2022-10-06T15:24:31.858Z,31.11
2022-10-06T15:29:30.731Z,30.74
2022-10-06T15:34:31.774Z,30.34
2022-10-06T15:39:35.346Z,29.81
2022-10-06T15:44:34.999Z,29.22
2022-10-06T15:49:38.425Z,28.64
2022-10-06T15:54:40.345Z,28.15
2022-10-06T15:59:40.217Z,27.66
2022-10-06T16:04:55.720Z,27.21
2022-10-06T16:09:55.945Z,26.75
2022-10-06T16:14:54.632Z,26.34
2022-10-06T16:19:56.783Z,25.93
2022-10-06T16:24:57.052Z,25.53
2022-10-06T16:29:55.756Z,25.22
2022-10-06T16:34:54.463Z,24.90
2022-10-06T16:39:53.112Z,24.61
2022-10-06T16:44:53.373Z,24.34
2022-10-06T16:49:52.118Z,24.09
2022-10-06T16:54:51.043Z,23.87
2022-10-06T16:59:49.741Z,23.66
2022-10-06T17:04:49.956Z,23.44
2022-10-06T17:10:08.460Z,23.22
2022-10-06T17:15:08.394Z,22.99
2022-10-06T17:20:09.381Z,22.77
2022-10-06T17:25:08.240Z,22.57
2022-10-06T17:30:08.725Z,22.42
2022-10-06T17:35:09.585Z,22.27
2022-10-06T17:40:09.159Z,22.09
2022-10-06T17:45:08.480Z,21.94
2022-10-06T17:50:09.734Z,21.74
2022-10-06T17:55:10.654Z,21.55
2022-10-06T18:00:12.270Z,21.43
2022-10-06T18:05:13.861Z,21.30
2022-10-06T18:10:30.851Z,21.19
2022-10-06T18:15:30.973Z,21.07
2022-10-06T18:20:45.599Z,20.96
2022-10-06T18:25:46.073Z,20.85
2022-10-06T18:30:51.406Z,20.74
2022-10-06T18:36:15.268Z,20.64
2022-10-06T18:41:17.170Z,20.49
2022-10-06T18:46:34.870Z,20.39
2022-10-06T18:51:37.636Z,20.27
2022-10-06T18:56:38.247Z,20.16
2022-10-06T19:01:39.674Z,20.05
2022-10-06T19:06:42.578Z,19.97
2022-10-06T19:11:48.532Z,19.84
2022-10-06T19:16:48.356Z,19.73
2022-10-06T19:21:50.255Z,19.63
2022-10-06T19:26:52.098Z,19.45
2022-10-06T19:31:53.056Z,19.33
2022-10-06T19:36:54.035Z,19.23
2022-10-06T19:42:10.372Z,19.14
2022-10-06T19:47:11.281Z,19.03
2022-10-06T19:52:13.296Z,18.92
2022-10-06T19:57:12.619Z,18.82
2022-10-06T20:02:12.902Z,18.77
2022-10-06T20:07:13.019Z,18.68
2022-10-06T20:12:12.344Z,18.59
2022-10-06T20:17:11.180Z,18.48
2022-10-06T20:22:09.886Z,18.38
2022-10-06T20:27:10.331Z,18.32
2022-10-06T20:32:09.035Z,18.23
2022-10-06T20:37:07.867Z,18.17
2022-10-06T20:42:12.191Z,18.09
2022-10-06T20:47:16.701Z,18.03
2022-10-06T20:52:17.790Z,17.85
2022-10-06T20:57:16.567Z,17.76
2022-10-06T21:02:16.738Z,17.66
2022-10-06T21:07:15.501Z,17.58
2022-10-06T21:12:16.063Z,17.50
2022-10-06T21:17:16.113Z,17.46
2022-10-06T21:22:14.768Z,17.42
2022-10-06T21:27:13.477Z,17.40
2022-10-06T21:32:12.272Z,17.25
2022-10-06T21:37:13.727Z,17.22
2022-10-06T21:42:12.494Z,17.21
2022-10-06T21:47:11.307Z,17.18
2022-10-06T21:52:10.198Z,17.14
2022-10-06T21:57:10.162Z,17.08
2022-10-06T22:02:08.973Z,16.87
2022-10-06T22:07:07.749Z,16.78
2022-10-06T22:12:06.572Z,16.73
2022-10-06T22:17:06.609Z,16.61
2022-10-06T22:22:05.350Z,16.55
2022-10-06T22:27:04.107Z,16.57
2022-10-06T22:32:02.818Z,16.51
2022-10-06T22:37:03.007Z,16.48
2022-10-06T22:42:02.540Z,16.39
2022-10-06T22:47:01.370Z,16.23
2022-10-06T22:52:00.138Z,16.16
2022-10-06T22:57:00.231Z,15.96
2022-10-06T23:01:59.412Z,15.83
2022-10-06T23:06:58.040Z,15.80
2022-10-06T23:11:56.678Z,15.75
2022-10-06T23:16:56.934Z,15.72
2022-10-06T23:21:55.681Z,15.67
2022-10-06T23:26:58.018Z,15.64
2022-10-06T23:31:58.230Z,15.59
2022-10-06T23:36:56.973Z,15.53
2022-10-06T23:41:55.669Z,15.48
2022-10-06T23:46:54.710Z,15.44
2022-10-06T23:51:54.773Z,15.41
2022-10-06T23:56:53.847Z,15.35
